| time (UTC) | temp C | wind direction | speed KPH | gust KPH | rain 1hr cm | rain 24hr cm | rain mn cm | humidity % | barometer mb |
| 20260505063042 | 17 | 190 | 0.0 | 8.0 | 0.00 | 0.00 | 0.00 | 54 | 1002.5 |
| 20260505061541 | 17 | 288 | 0.0 | 6.4 | 0.00 | 0.00 | 0.00 | 54 | 1002.7 |
| 20260505060039 | 18 | 217 | 0.0 | 14.5 | 0.00 | 0.00 | 0.00 | 53 | 1002.6 |
| 20260505054546 | 18 | 242 | 0.0 | 6.4 | 0.00 | 0.00 | 0.00 | 49 | 1002.6 |
| 20260505053034 | 17 | 227 | 0.0 | 0.0 | 0.00 | 0.00 | 0.00 | 51 | 1002.7 |
| 20260505051531 | 17 | 252 | 0.0 | 0.0 | 0.00 | 0.00 | 0.00 | 52 | 1002.6 |
| 20260505041525 | 16 | 235 | 0.0 | 0.0 | 0.00 | 0.00 | 0.00 | 52 | 1002.6 |
| 20260505040022 | 16 | 239 | 0.0 | 0.0 | 0.00 | 0.00 | 0.00 | 53 | 1002.5 |
| 20260505034526 | 16 | 239 | 0.0 | 0.0 | 0.00 | 0.00 | 0.00 | 52 | 1002.3 |
| 20260505033021 | 15 | 258 | 0.0 | 0.0 | 0.00 | 0.00 | 0.00 | 53 | 1002.3 |
| 20260505031520 | 15 | 97 | 0.0 | 0.0 | 0.00 | 0.00 | 0.00 | 54 | 1002.4 |
| 20260505030036 | 16 | 287 | 0.0 | 0.0 | 0.00 | 0.00 | 0.00 | 52 | 1002.3 |
| 20260505024519 | 16 | 243 | 0.0 | 0.0 | 0.00 | 0.00 | 0.00 | 52 | 1002.4 |
| 20260505023019 | 16 | 103 | 0.0 | 0.0 | 0.00 | 0.00 | 0.00 | 50 | 1002.5 |
| 20260505021521 | 15 | 95 | 0.0 | 0.0 | 0.00 | 0.00 | 0.00 | 52 | 1002.6 |
| 20260505020019 | 15 | 121 | 0.0 | 0.0 | 0.00 | 0.00 | 0.00 | 52 | 1002.5 |
| 20260505014522 | 15 | 99 | 0.0 | 0.0 | 0.00 | 0.00 | 0.00 | 54 | 1002.5 |
| 20260505013019 | 14 | 279 | 0.0 | 0.0 | 0.00 | 0.00 | 0.00 | 54 | 1002.5 |
| 20260505011517 | 15 | 275 | 0.0 | 0.0 | 0.00 | 0.00 | 0.00 | 54 | 1002.5 |
| 20260505010016 | 15 | 275 | 0.0 | 0.0 | 0.00 | 0.00 | 0.00 | 52 | 1002.4 |
| 20260505004529 | 16 | 276 | 0.0 | 0.0 | 0.00 | 0.00 | 0.00 | 50 | 1002.3 |
| 20260505003015 | 17 | 276 | 0.0 | 0.0 | 0.00 | 0.00 | 0.00 | 50 | 1002.2 |
| 20260505001516 | 18 | 275 | 0.0 | 0.0 | 0.00 | 0.00 | 0.00 | 44 | 1002.1 |
| 20260505000017 | 20 | 275 | 0.0 | 0.0 | 0.00 | 0.00 | 0.00 | 39 | 1002.1 |
| 20260504234518 | 22 | 276 | 0.0 | 0.0 | 0.00 | 0.00 | 0.00 | 33 | 1002.0 |
| 20260504233019 | 23 | 275 | 0.0 | 0.0 | 0.00 | 0.00 | 0.00 | 30 | 1001.9 |
| 20260504231512 | 23 | 224 | 0.0 | 0.0 | 0.00 | 0.00 | 0.00 | 28 | 1001.8 |
| 20260504230012 | 23 | 266 | 0.0 | 0.0 | 0.00 | 0.00 | 0.00 | 28 | 1001.9 |
| 20260504224511 | 23 | 241 | 0.0 | 0.0 | 0.00 | 0.00 | 0.00 | 27 | 1002.0 |
| 20260504223010 | 23 | 274 | 0.0 | 6.4 | 0.00 | 0.00 | 0.00 | 27 | 1002.1 |
| 20260504221508 | 23 | 214 | 0.0 | 14.5 | 0.00 | 0.00 | 0.00 | 27 | 1002.2 |
| 20260504220007 | 24 | 157 | 0.0 | 12.9 | 0.00 | 0.00 | 0.00 | 27 | 1002.1 |
| 20260504214506 | 24 | 241 | 0.0 | 6.4 | 0.00 | 0.00 | 0.00 | 29 | 1002.2 |
| 20260504213013 | 23 | 307 | 3.2 | 12.9 | 0.00 | 0.00 | 0.00 | 28 | 1002.4 |
| 20260504211501 | 23 | 236 | 0.0 | 17.7 | 0.00 | 0.00 | 0.00 | 30 | 1002.4 |
| 20260504210100 | 23 | 240 | 0.0 | 11.3 | 0.00 | 0.00 | 0.00 | 31 | 1002.6 |
| 20260504204558 | 23 | 281 | 0.0 | 16.1 | 0.00 | 0.00 | 0.00 | 31 | 1002.6 |
| 20260504203056 | 23 | 296 | 0.0 | 9.7 | 0.00 | 0.00 | 0.00 | 33 | 1002.7 |
| 20260504201555 | 23 | 288 | 0.0 | 3.2 | 0.00 | 0.00 | 0.00 | 33 | 1002.8 |
| 20260504200051 | 22 | 108 | 0.0 | 16.1 | 0.00 | 0.00 | 0.00 | 34 | 1003.0 |
| 20260504194553 | 22 | 356 | 0.0 | 12.9 | 0.00 | 0.00 | 0.00 | 36 | 1003.4 |
| 20260504193048 | 22 | 333 | 0.0 | 16.1 | 0.00 | 0.00 | 0.00 | 35 | 1003.6 |
| 20260504191607 | 22 | 212 | 0.0 | 8.0 | 0.00 | 0.00 | 0.00 | 36 | 1003.8 |
| 20260504190042 | 22 | 281 | 0.0 | 22.5 | 0.00 | 0.00 | 0.00 | 36 | 1004.1 |
| 20260504184553 | 22 | 271 | 0.0 | 9.7 | 0.00 | 0.00 | 0.00 | 37 | 1004.2 |
| 20260504183038 | 22 | 254 | 0.0 | 11.3 | 0.00 | 0.00 | 0.00 | 38 | 1004.2 |
| 20260504181536 | 21 | 233 | 0.0 | 17.7 | 0.00 | 0.00 | 0.00 | 39 | 1004.3 |
| 20260504180036 | 21 | 229 | 0.0 | 16.1 | 0.00 | 0.00 | 0.00 | 39 | 1004.5 |
| 20260504174533 | 21 | 278 | 1.6 | 17.7 | 0.00 | 0.00 | 0.00 | 39 | 1004.5 |
| 20260504173032 | 21 | 252 | 0.0 | 27.4 | 0.00 | 0.00 | 0.00 | 41 | 1004.6 |
| 20260504171529 | 21 | 131 | 0.0 | 11.3 | 0.00 | 0.00 | 0.00 | 39 | 1004.5 |
| 20260504140103 | 15 | 212 | 0.0 | 12.9 | 0.00 | 0.00 | 0.00 | 45 | 1006.2 |
| 20260504081513 | 10 | 226 | 0.0 | 0.0 | 0.00 | 0.00 | 0.00 | 52 | 1007.0 |